Time;durP1;ratioP1;P1;durP2;ratioP2;P2;SDS_P1;SDS_P2;PMS_P1;PMS_P2;Temp;Humidity;BMP_temperature;BMP_pressure;BME280_temperature;BME280_humidity;BME280_pressure;Samples;Min_cycle;Max_cycle;Signal;HPM_P1;HPM_P2
2021/06/29 00:00:12;;;;;;;17.43;16.03;;;20.20;37.00;;;;;;4913195;29;20189;-56
2021/06/29 00:02:37;;;;;;;17.47;16.07;;;20.10;41.50;;;;;;4914660;29;20191;-56
2021/06/29 00:05:04;;;;;;;16.80;15.50;;;20.10;42.50;;;;;;4926167;29;20477;-56
2021/06/29 00:07:29;;;;;;;17.20;15.90;;;20.10;42.20;;;;;;4918370;29;20227;-57
2021/06/29 00:09:55;;;;;;;16.10;14.87;;;20.10;43.50;;;;;;4928911;29;20468;-56
2021/06/29 00:12:21;;;;;;;17.30;15.90;;;20.10;45.70;;;;;;4919036;29;20190;-60
2021/06/29 00:14:46;;;;;;;17.70;16.30;;;20.10;43.90;;;;;;4924691;29;20645;-60
2021/06/29 00:17:12;;;;;;;17.27;15.87;;;20.10;43.50;;;;;;4921099;29;20459;-60
2021/06/29 00:19:38;;;;;;;16.90;15.60;;;20.10;44.00;;;;;;4926296;29;20571;-61
2021/06/29 00:22:05;;;;;;;16.83;15.53;;;20.10;43.30;;;;;;4912616;29;20534;-60
2021/06/29 00:24:31;;;;;;;17.53;16.13;;;20.10;40.40;;;;;;4914228;29;20233;-60
2021/06/29 00:26:56;;;;;;;17.00;15.70;;;20.10;38.10;;;;;;4914422;29;20450;-62
2021/06/29 00:29:22;;;;;;;17.70;16.40;;;20.00;46.10;;;;;;4922086;29;20557;-60
2021/06/29 00:31:47;;;;;;;17.80;16.40;;;19.90;50.00;;;;;;4916715;29;20208;-60
2021/06/29 00:34:13;;;;;;;16.63;15.33;;;19.90;54.90;;;;;;4912091;29;21000;-60
2021/06/29 00:36:38;;;;;;;16.77;15.47;;;19.80;57.10;;;;;;4913992;29;20572;-59
2021/06/29 00:39:05;;;;;;;17.27;15.90;;;19.90;55.70;;;;;;4916396;29;20198;-59
2021/06/29 00:41:31;;;;;;;17.90;16.50;;;19.80;58.30;;;;;;4913884;29;20586;-61
2021/06/29 00:43:57;;;;;;;17.53;16.10;;;19.90;56.50;;;;;;4919947;29;20987;-65
2021/06/29 00:46:23;;;;;;;17.97;16.50;;;19.80;58.90;;;;;;4924561;29;20446;-59
2021/06/29 00:48:48;;;;;;;18.03;16.60;;;19.80;61.00;;;;;;4913351;29;20523;-59
2021/06/29 00:51:16;;;;;;;17.30;15.80;;;19.80;62.20;;;;;;4926990;29;20188;-61
2021/06/29 00:53:46;;;;;;;17.87;16.40;;;19.70;62.50;;;;;;4917847;29;20192;-58
2021/06/29 00:56:15;;;;;;;17.60;16.20;;;19.70;62.90;;;;;;4922582;29;20458;-60
2021/06/29 00:58:46;;;;;;;18.90;17.30;;;19.70;65.00;;;;;;4922101;29;20553;-59
2021/06/29 01:01:13;;;;;;;18.33;16.83;;;19.70;66.90;;;;;;4925008;29;20539;-59
2021/06/29 01:03:40;;;;;;;19.13;17.63;;;19.60;68.40;;;;;;4912039;29;20886;-60
2021/06/29 01:06:07;;;;;;;18.03;16.63;;;19.60;74.00;;;;;;4912347;29;20462;-59
2021/06/29 01:08:33;;;;;;;19.77;18.17;;;19.50;75.90;;;;;;4920534;29;20451;-59
2021/06/29 01:10:59;;;;;;;18.87;17.20;;;19.40;79.40;;;;;;4931024;29;20980;-60
2021/06/29 01:13:32;;;;;;;17.80;16.40;;;19.40;81.70;;;;;;4924599;29;20206;-59
2021/06/29 01:15:58;;;;;;;17.70;16.20;;;19.40;82.90;;;;;;4924155;29;20438;-60
2021/06/29 01:18:23;;;;;;;18.40;17.00;;;19.40;81.70;;;;;;4918727;29;20451;-59
2021/06/29 01:20:49;;;;;;;17.93;16.43;;;19.40;81.50;;;;;;4930986;29;20432;-59
2021/06/29 01:23:18;;;;;;;19.70;18.20;;;19.40;78.30;;;;;;4910622;29;20344;-59
2021/06/29 01:25:45;;;;;;;17.93;16.30;;;19.40;80.30;;;;;;4932742;29;20190;-60
2021/06/29 01:28:30;;;;;;;17.67;16.27;;;19.40;80.60;;;;;;4919979;29;20760;-59
2021/06/29 01:33:28;;;;;;;18.97;17.37;;;19.40;73.80;;;;;;4915712;29;20458;-60
2021/06/29 01:35:53;;;;;;;20.37;18.57;;;19.30;80.30;;;;;;4923973;29;20985;-60
2021/06/29 01:38:20;;;;;;;18.17;16.67;;;19.20;87.80;;;;;;4915438;29;20619;-60
2021/06/29 01:40:46;;;;;;;18.60;17.03;;;19.20;87.90;;;;;;4916208;29;20581;-58
2021/06/29 01:43:12;;;;;;;17.97;16.43;;;19.20;90.30;;;;;;4923277;29;20446;-58
2021/06/29 01:45:40;;;;;;;19.17;17.57;;;19.20;90.30;;;;;;4919875;29;20183;-58
2021/06/29 01:48:16;;;;;;;19.13;17.27;;;19.20;90.80;;;;;;4920027;29;20545;-59
2021/06/29 01:50:41;;;;;;;18.17;16.77;;;19.20;90.60;;;;;;4924197;29;20437;-59
2021/06/29 01:53:07;;;;;;;18.17;16.77;;;19.20;89.60;;;;;;4931852;29;21060;-59
2021/06/29 01:55:32;;;;;;;17.77;16.27;;;19.20;86.20;;;;;;4916972;29;20211;-59
2021/06/29 01:57:59;;;;;;;18.63;17.13;;;19.20;84.70;;;;;;4913158;29;20222;-60
2021/06/29 02:00:25;;;;;;;19.03;17.33;;;19.10;86.30;;;;;;4918510;29;20237;-60
2021/06/29 02:02:51;;;;;;;18.60;17.10;;;19.10;87.10;;;;;;4927089;29;20453;-59
2021/06/29 02:05:16;;;;;;;18.97;17.37;;;19.10;90.80;;;;;;4933947;29;20528;-60
2021/06/29 02:07:42;;;;;;;19.40;17.80;;;19.00;92.80;;;;;;4927852;29;20197;-60
2021/06/29 02:10:09;;;;;;;18.97;17.47;;;19.00;93.70;;;;;;4922765;29;20665;-59
2021/06/29 02:12:34;;;;;;;19.60;17.90;;;19.00;94.30;;;;;;4915510;29;20565;-60
2021/06/29 02:15:00;;;;;;;20.10;18.30;;;19.00;95.80;;;;;;4925920;29;20453;-60
2021/06/29 02:17:25;;;;;;;19.97;18.27;;;18.90;96.60;;;;;;4934884;29;20191;-60
2021/06/29 02:19:51;;;;;;;19.80;18.03;;;18.90;97.80;;;;;;4926841;29;20241;-60
2021/06/29 02:22:16;;;;;;;19.97;18.23;;;18.90;99.10;;;;;;4928807;29;20647;-60
2021/06/29 02:24:42;;;;;;;19.07;17.53;;;18.80;99.90;;;;;;4926027;29;20213;-60
2021/06/29 02:27:08;;;;;;;19.73;18.03;;;18.80;99.90;;;;;;4920878;29;20270;-60
2021/06/29 02:29:34;;;;;;;20.83;18.97;;;18.80;99.90;;;;;;4915823;29;20202;-60
2021/06/29 02:32:00;;;;;;;20.33;18.60;;;18.80;99.90;;;;;;4915504;29;20234;-60
2021/06/29 02:34:25;;;;;;;19.60;18.00;;;18.70;99.90;;;;;;4923644;29;20454;-60
2021/06/29 02:36:51;;;;;;;20.27;18.57;;;18.70;99.90;;;;;;4919955;29;20241;-59
2021/06/29 02:39:16;;;;;;;20.63;18.90;;;18.70;99.90;;;;;;4922691;29;20527;-60
2021/06/29 02:41:42;;;;;;;20.27;18.57;;;18.70;99.90;;;;;;4914404;29;20198;-59
2021/06/29 02:44:09;;;;;;;19.70;17.90;;;18.60;99.90;;;;;;4921998;29;20218;-58
2021/06/29 02:46:35;;;;;;;20.10;18.37;;;18.60;99.90;;;;;;4914842;29;20179;-58
2021/06/29 02:49:01;;;;;;;20.37;18.67;;;18.60;99.90;;;;;;4917526;29;20485;-60
2021/06/29 02:51:26;;;;;;;20.00;18.30;;;18.60;99.90;;;;;;4921088;29;20209;-59
2021/06/29 02:53:52;;;;;;;21.10;19.00;;;18.60;99.90;;;;;;4917385;29;20202;-59
2021/06/29 02:59:02;;;;;;;21.13;19.40;;;18.50;99.90;;;;;;4926753;29;20193;-60
2021/06/29 03:01:27;;;;;;;21.10;19.20;;;18.50;99.90;;;;;;4929267;29;20446;-59
2021/06/29 03:03:53;;;;;;;20.80;19.10;;;18.50;99.90;;;;;;4915316;29;20218;-59
2021/06/29 03:06:18;;;;;;;20.83;19.03;;;18.50;99.90;;;;;;4914497;29;20195;-59
2021/06/29 03:08:44;;;;;;;22.03;19.90;;;18.50;99.90;;;;;;4929527;29;20197;-60
2021/06/29 03:11:09;;;;;;;21.23;19.23;;;18.50;99.90;;;;;;4921084;29;20212;-59
2021/06/29 03:13:35;;;;;;;22.50;20.50;;;18.60;99.90;;;;;;4916296;29;20722;-59
2021/06/29 03:16:00;;;;;;;23.33;21.33;;;18.60;99.90;;;;;;4913520;29;20197;-59
2021/06/29 03:18:26;;;;;;;22.40;20.50;;;18.60;99.90;;;;;;4916214;29;20319;-59
2021/06/29 03:20:51;;;;;;;21.80;20.00;;;18.60;99.90;;;;;;4923911;29;20665;-58
2021/06/29 03:23:17;;;;;;;21.43;19.63;;;18.70;99.90;;;;;;4932784;29;20192;-59
2021/06/29 03:25:43;;;;;;;20.80;18.90;;;18.80;99.90;;;;;;4932315;29;20186;-58
2021/06/29 03:28:09;;;;;;;21.53;19.53;;;18.80;99.90;;;;;;4915795;29;20249;-57
2021/06/29 03:30:34;;;;;;;20.80;19.00;;;18.90;99.90;;;;;;4924496;29;20183;-59
2021/06/29 03:33:00;;;;;;;20.97;19.10;;;18.90;99.90;;;;;;4914105;29;20927;-59
2021/06/29 03:35:25;;;;;;;21.97;20.07;;;18.90;99.90;;;;;;4926544;29;20835;-59
2021/06/29 03:37:52;;;;;;;20.43;18.80;;;19.00;99.90;;;;;;4924846;29;20294;-60
2021/06/29 03:40:17;;;;;;;20.20;18.43;;;19.10;99.90;;;;;;4913100;29;20245;-60
2021/06/29 03:42:43;;;;;;;19.70;18.00;;;19.10;99.30;;;;;;4915504;29;20439;-60
2021/06/29 03:45:08;;;;;;;19.97;18.30;;;19.20;95.50;;;;;;4920495;29;21055;-59
2021/06/29 03:47:35;;;;;;;19.50;17.80;;;19.20;94.10;;;;;;4915000;29;20267;-60
2021/06/29 03:50:01;;;;;;;19.67;17.83;;;19.20;94.90;;;;;;4912243;29;20292;-60
2021/06/29 03:52:27;;;;;;;18.90;17.10;;;19.10;93.60;;;;;;4927392;29;20804;-61
2021/06/29 03:54:53;;;;;;;19.37;17.67;;;19.10;99.30;;;;;;4913231;29;20845;-60
2021/06/29 03:57:18;;;;;;;18.43;16.93;;;19.20;99.90;;;;;;4924117;29;20539;-60
2021/06/29 03:59:44;;;;;;;19.67;17.70;;;19.30;98.00;;;;;;4930491;29;20292;-60
2021/06/29 04:02:10;;;;;;;18.97;17.37;;;19.30;95.60;;;;;;4926254;29;20627;-59
2021/06/29 04:04:35;;;;;;;17.70;16.20;;;19.30;92.70;;;;;;4923043;29;20222;-60
2021/06/29 04:07:02;;;;;;;18.20;16.70;;;19.40;92.20;;;;;;4912770;29;21042;-59
2021/06/29 04:09:28;;;;;;;20.30;18.30;;;19.50;91.00;;;;;;4931220;29;20220;-59
2021/06/29 04:11:54;;;;;;;19.60;17.70;;;19.50;87.10;;;;;;4937644;29;20464;-59
2021/06/29 04:14:19;;;;;;;20.63;18.73;;;19.50;83.90;;;;;;4919747;29;20699;-59
2021/06/29 04:16:45;;;;;;;19.10;17.50;;;19.60;83.80;;;;;;4921798;29;20219;-59
2021/06/29 04:19:10;;;;;;;21.67;19.87;;;19.70;82.00;;;;;;4929538;29;20241;-59
2021/06/29 04:21:36;;;;;;;19.70;18.00;;;19.80;79.00;;;;;;4915132;29;20207;-62
2021/06/29 04:24:05;;;;;;;20.40;18.70;;;19.80;71.40;;;;;;4912264;29;20216;-59
2021/06/29 04:26:58;;;;;;;18.83;17.13;;;19.90;68.80;;;;;;4900207;29;20277;-59
2021/06/29 04:29:24;;;;;;;19.47;17.87;;;19.90;69.10;;;;;;4921248;29;20848;-61
2021/06/29 04:31:49;;;;;;;18.93;17.43;;;20.00;64.00;;;;;;4913406;29;20209;-60
2021/06/29 04:34:15;;;;;;;19.90;18.30;;;20.10;60.40;;;;;;4912480;29;20198;-60
2021/06/29 04:36:40;;;;;;;19.80;18.00;;;20.20;54.40;;;;;;4916224;29;20199;-60
2021/06/29 04:39:06;;;;;;;19.20;17.40;;;20.20;50.90;;;;;;4915916;29;20654;-63
2021/06/29 04:41:33;;;;;;;18.47;17.07;;;20.20;47.80;;;;;;4912354;29;20202;-63
2021/06/29 04:43:58;;;;;;;17.90;16.20;;;20.30;42.30;;;;;;4914990;29;20356;-61
2021/06/29 04:46:24;;;;;;;18.27;16.73;;;20.40;38.20;;;;;;4913443;29;20996;-60
2021/06/29 04:48:50;;;;;;;18.90;17.10;;;20.40;29.60;;;;;;4913356;29;20205;-60
2021/06/29 04:51:15;;;;;;;18.83;17.30;;;20.40;20.40;;;;;;4912742;29;20248;-66
2021/06/29 04:53:41;;;;;;;19.57;17.70;;;20.20;21.40;;;;;;4913708;29;20208;-60
2021/06/29 04:56:18;;;;;;;19.07;17.27;;;20.10;26.00;;;;;;4914079;29;20209;-60
2021/06/29 04:58:52;;;;;;;18.03;16.53;;;20.10;28.00;;;;;;4916780;29;20226;-60
2021/06/29 05:01:18;;;;;;;18.40;16.90;;;20.10;35.50;;;;;;4922055;29;20549;-60
2021/06/29 05:03:43;;;;;;;19.53;17.93;;;20.10;37.80;;;;;;4913879;29;20481;-60
2021/06/29 05:06:09;;;;;;;19.17;17.53;;;20.10;38.20;;;;;;4913684;29;20772;-61
2021/06/29 05:08:35;;;;;;;18.50;17.00;;;20.10;39.70;;;;;;4920523;29;20181;-60
2021/06/29 05:11:00;;;;;;;19.80;18.20;;;19.90;41.40;;;;;;4919804;29;20261;-60
2021/06/29 05:13:26;;;;;;;17.80;16.40;;;20.00;45.80;;;;;;4917520;29;20195;-60
2021/06/29 05:15:51;;;;;;;18.40;16.90;;;20.10;42.80;;;;;;4924220;29;20204;-60
2021/06/29 05:18:17;;;;;;;17.50;16.00;;;20.10;42.50;;;;;;4934446;29;20221;-58
2021/06/29 05:20:43;;;;;;;17.90;16.50;;;20.20;39.10;;;;;;4931604;29;20229;-60
2021/06/29 05:23:09;;;;;;;17.90;16.40;;;20.20;33.60;;;;;;4924853;29;20198;-60
2021/06/29 05:25:34;;;;;;;18.77;17.07;;;20.20;28.70;;;;;;4931711;29;20484;-60
2021/06/29 05:28:00;;;;;;;18.43;16.87;;;20.20;31.50;;;;;;4923276;29;20272;-60
2021/06/29 05:30:26;;;;;;;17.90;16.30;;;20.20;35.00;;;;;;4922807;29;20619;-59
2021/06/29 05:32:52;;;;;;;17.10;15.57;;;20.20;33.50;;;;;;4930616;29;20204;-60
2021/06/29 05:35:17;;;;;;;17.70;16.20;;;20.30;28.80;;;;;;4917617;29;20198;-55
2021/06/29 05:37:43;;;;;;;18.30;16.80;;;20.40;26.90;;;;;;4926807;29;20496;-59
2021/06/29 05:40:09;;;;;;;17.87;16.27;;;20.40;27.20;;;;;;4937158;29;20201;-57
2021/06/29 05:42:35;;;;;;;17.80;16.40;;;20.50;23.90;;;;;;4928933;29;20507;-58
2021/06/29 05:45:00;;;;;;;18.70;17.17;;;20.60;22.60;;;;;;4932473;29;20469;-53
2021/06/29 05:47:26;;;;;;;17.57;16.27;;;20.70;17.20;;;;;;4924862;29;20244;-53
2021/06/29 05:49:52;;;;;;;18.30;16.73;;;20.70;16.40;;;;;;4906870;29;20193;-58
2021/06/29 05:52:17;;;;;;;18.40;16.90;;;20.70;13.90;;;;;;4923606;29;20210;-54
2021/06/29 05:54:44;;;;;;;18.50;16.87;;;20.70;15.50;;;;;;4926931;29;20194;-54
2021/06/29 05:57:14;;;;;;;17.93;16.50;;;20.70;18.40;;;;;;4923407;29;20187;-56
2021/06/29 05:59:40;;;;;;;18.27;16.47;;;20.70;18.80;;;;;;4918411;29;20449;-59
2021/06/29 06:02:07;;;;;;;17.90;16.50;;;20.70;19.70;;;;;;4922401;29;20482;-59
2021/06/29 06:04:33;;;;;;;17.80;16.40;;;20.80;17.50;;;;;;4921256;29;20567;-64
2021/06/29 06:06:59;;;;;;;18.53;16.73;;;20.80;18.20;;;;;;4927702;29;20441;-60
2021/06/29 06:09:25;;;;;;;18.23;16.63;;;20.80;15.90;;;;;;4924988;29;20702;-60
2021/06/29 06:11:50;;;;;;;18.20;16.70;;;20.90;10.80;;;;;;4934390;29;20445;-60
2021/06/29 06:14:16;;;;;;;18.37;16.63;;;20.90;9.70;;;;;;4918524;29;20252;-60
2021/06/29 06:16:41;;;;;;;19.30;17.80;;;20.80;10.80;;;;;;4922779;29;20641;-60
2021/06/29 06:19:07;;;;;;;17.60;16.10;;;20.70;14.20;;;;;;4915425;29;20238;-65
2021/06/29 06:21:33;;;;;;;17.83;16.43;;;20.80;14.60;;;;;;4922237;29;20250;-60
2021/06/29 06:23:58;;;;;;;17.23;15.73;;;20.90;11.20;;;;;;4913979;29;20329;-60
2021/06/29 06:26:24;;;;;;;18.37;16.60;;;21.00;8.50;;;;;;4914076;29;20187;-60
2021/06/29 06:28:49;;;;;;;16.73;15.30;;;20.90;11.60;;;;;;4916301;29;22241;-60
2021/06/29 06:31:15;;;;;;;18.10;16.50;;;20.90;13.40;;;;;;4920814;29;20194;-60
2021/06/29 06:33:40;;;;;;;16.93;15.43;;;20.90;9.80;;;;;;4923513;29;20218;-60
2021/06/29 06:36:06;;;;;;;16.93;15.57;;;21.00;7.20;;;;;;4915437;29;20656;-59
2021/06/29 06:38:32;;;;;;;17.23;15.70;;;21.10;6.50;;;;;;4927496;29;20202;-62
2021/06/29 06:40:57;;;;;;;16.47;15.10;;;21.20;5.00;;;;;;4921684;29;20250;-66
2021/06/29 06:43:23;;;;;;;16.67;15.17;;;21.20;1.00;;;;;;4917050;29;20721;-60
2021/06/29 06:45:49;;;;;;;16.00;14.70;;;21.20;1.00;;;;;;4921314;29;20542;-60
2021/06/29 06:48:14;;;;;;;17.60;15.97;;;21.30;1.00;;;;;;4931883;29;20196;-59
2021/06/29 06:50:40;;;;;;;16.60;15.00;;;21.40;1.00;;;;;;4930974;29;20182;-60
2021/06/29 06:53:05;;;;;;;16.07;14.67;;;21.60;1.00;;;;;;4923890;29;20189;-60
2021/06/29 06:55:31;;;;;;;16.63;15.23;;;21.80;1.00;;;;;;4928087;29;20831;-60
2021/06/29 06:57:57;;;;;;;15.37;14.13;;;22.00;1.00;;;;;;4931592;29;20210;-62
2021/06/29 07:00:24;;;;;;;16.77;15.17;;;22.10;1.00;;;;;;4911759;29;20193;-60
2021/06/29 07:02:50;;;;;;;16.50;15.17;;;22.30;1.00;;;;;;4911112;29;20454;-59
2021/06/29 07:05:16;;;;;;;16.13;14.73;;;22.50;1.00;;;;;;4926099;29;20549;-59
2021/06/29 07:07:42;;;;;;;16.07;14.77;;;22.50;1.00;;;;;;4931071;29;20484;-64
2021/06/29 07:10:08;;;;;;;16.23;14.93;;;22.50;1.00;;;;;;4917788;29;20474;-59
2021/06/29 07:12:34;;;;;;;15.17;13.97;;;22.80;1.00;;;;;;4930197;29;20273;-59
2021/06/29 07:14:59;;;;;;;15.23;14.10;;;23.00;1.00;;;;;;4924956;29;20545;-59
2021/06/29 07:17:25;;;;;;;16.00;14.77;;;23.10;1.00;;;;;;4927632;29;20193;-59
2021/06/29 07:19:51;;;;;;;16.53;15.27;;;23.30;1.00;;;;;;4921158;29;20237;-59
2021/06/29 07:22:18;;;;;;;16.93;15.40;;;23.50;1.00;;;;;;4923409;29;20209;-59
2021/06/29 07:24:43;;;;;;;18.00;16.30;;;23.20;1.00;;;;;;4914237;29;20485;-59
2021/06/29 07:27:09;;;;;;;16.73;15.43;;;23.00;1.00;;;;;;4921511;29;20455;-57
2021/06/29 07:29:36;;;;;;;17.30;15.80;;;23.10;1.00;;;;;;4912376;29;20552;-58
2021/06/29 07:32:02;;;;;;;15.90;14.70;;;22.90;1.00;;;;;;4910073;29;20211;-59
2021/06/29 07:34:28;;;;;;;17.23;15.63;;;23.00;1.00;;;;;;4910399;29;20449;-59
2021/06/29 07:36:55;;;;;;;16.97;15.33;;;23.10;1.00;;;;;;4915430;29;20541;-58
2021/06/29 07:39:20;;;;;;;15.70;14.40;;;23.30;1.00;;;;;;4920506;29;20194;-58
2021/06/29 07:41:46;;;;;;;16.43;14.93;;;23.60;1.00;;;;;;4914593;29;20442;-60
2021/06/29 07:44:11;;;;;;;15.17;13.90;;;23.70;1.00;;;;;;4916732;29;20232;-59
2021/06/29 07:46:37;;;;;;;16.03;14.60;;;23.80;1.00;;;;;;4916771;29;20190;-58
2021/06/29 07:49:04;;;;;;;17.30;15.60;;;24.00;1.00;;;;;;4919900;29;20193;-58
2021/06/29 07:51:30;;;;;;;16.37;15.07;;;24.10;1.00;;;;;;4914523;29;20278;-59
2021/06/29 07:53:56;;;;;;;17.23;15.83;;;24.10;1.00;;;;;;4918955;29;20493;-59
2021/06/29 07:56:22;;;;;;;17.30;15.80;;;24.30;1.00;;;;;;4917469;29;20438;-59
2021/06/29 07:58:47;;;;;;;17.77;16.20;;;24.30;1.00;;;;;;4916306;29;20537;-59
2021/06/29 08:01:14;;;;;;;15.90;14.53;;;24.60;1.00;;;;;;4914345;29;20948;-58
2021/06/29 08:03:40;;;;;;;15.70;14.50;;;24.70;1.00;;;;;;4924796;29;20229;-59
2021/06/29 08:06:05;;;;;;;15.80;14.43;;;24.90;1.00;;;;;;4918945;29;20446;-58
2021/06/29 08:08:31;;;;;;;15.73;14.57;;;25.10;1.00;;;;;;4903839;29;20224;-60
2021/06/29 08:11:01;;;;;;;14.87;13.77;;;25.30;99.90;;;;;;4917165;29;20209;-59
2021/06/29 08:13:27;;;;;;;14.50;13.40;;;25.20;99.90;;;;;;4914240;29;20595;-59
2021/06/29 08:15:53;;;;;;;15.10;14.00;;;25.40;99.90;;;;;;4914558;29;20514;-59
2021/06/29 08:18:19;;;;;;;15.27;14.10;;;25.60;99.90;;;;;;4920548;29;20205;-60
2021/06/29 08:20:45;;;;;;;14.57;13.40;;;25.80;37.50;;;;;;4929981;29;20883;-60
2021/06/29 08:23:12;;;;;;;14.20;13.10;;;25.80;1.00;;;;;;4920284;29;20258;-59
2021/06/29 08:25:39;;;;;;;13.53;12.50;;;25.90;1.00;;;;;;4913583;29;21018;-60
2021/06/29 08:28:05;;;;;;;13.50;12.50;;;26.10;99.90;;;;;;4915107;29;20448;-61
2021/06/29 08:30:30;;;;;;;13.73;12.67;;;26.30;1.00;;;;;;4920406;29;20521;-60
2021/06/29 08:32:56;;;;;;;12.60;11.70;;;26.50;1.00;;;;;;4935092;29;20198;-57
2021/06/29 08:35:22;;;;;;;12.20;11.30;;;26.70;99.90;;;;;;4937451;29;20264;-60
2021/06/29 08:37:48;;;;;;;11.90;11.03;;;26.90;1.00;;;;;;4921723;29;20550;-60
2021/06/29 08:40:14;;;;;;;13.10;12.00;;;27.20;1.00;;;;;;4919633;29;20442;-60
2021/06/29 08:42:41;;;;;;;12.43;11.33;;;27.50;1.00;;;;;;4920897;29;21058;-60
2021/06/29 08:45:10;;;;;;;13.57;12.60;;;27.70;34.00;;;;;;4920809;29;20576;-60
2021/06/29 08:47:36;;;;;;;12.93;11.93;;;28.00;1.00;;;;;;4921458;29;20436;-60
2021/06/29 08:50:04;;;;;;;12.43;11.63;;;28.30;1.00;;;;;;4924487;29;20528;-60
2021/06/29 08:52:30;;;;;;;12.73;11.70;;;28.50;1.00;;;;;;4918163;29;20450;-60
2021/06/29 08:54:55;;;;;;;13.37;12.47;;;28.80;1.00;;;;;;4924249;29;20449;-60
2021/06/29 08:57:21;;;;;;;13.80;12.80;;;29.10;6.10;;;;;;4919182;29;20187;-59
2021/06/29 08:59:46;;;;;;;13.00;12.10;;;29.30;1.00;;;;;;4923379;29;20605;-60
2021/06/29 09:02:12;;;;;;;12.90;12.00;;;29.60;99.90;;;;;;4919844;29;20653;-59
2021/06/29 09:04:51;;;;;;;10.97;10.27;;;29.60;99.90;;;;;;4917762;29;20558;-60
2021/06/29 09:07:22;;;;;;;12.43;11.63;;;29.50;1.00;;;;;;4918086;29;20193;-60
2021/06/29 09:09:55;;;;;;;11.57;10.60;;;29.70;1.00;;;;;;4914977;29;20447;-62
2021/06/29 09:12:40;;;;;;;12.93;12.03;;;29.60;5.80;;;;;;4913369;29;20427;-60
2021/06/29 09:15:42;;;;;;;11.23;10.53;;;29.90;1.00;;;;;;4912519;29;20461;-59
2021/06/29 09:18:17;;;;;;;38.50;36.23;;;30.10;1.00;;;;;;4914936;29;21087;-59
2021/06/29 09:20:50;;;;;;;12.43;11.63;;;30.30;1.00;;;;;;4912889;29;20780;-59
2021/06/29 09:23:22;;;;;;;12.23;11.33;;;30.40;1.00;;;;;;4916736;29;20983;-61
2021/06/29 09:25:51;;;;;;;11.93;11.13;;;30.60;1.00;;;;;;4912306;29;20553;-60
2021/06/29 09:28:20;;;;;;;11.83;11.03;;;30.60;1.00;;;;;;4912659;29;20537;-57
2021/06/29 09:30:58;;;;;;;11.80;10.87;;;30.70;1.00;;;;;;4913335;29;20447;-60
2021/06/29 09:33:23;;;;;;;11.30;10.60;;;30.70;1.00;;;;;;4919258;29;20443;-59
2021/06/29 09:35:58;;;;;;;11.03;10.33;;;30.70;1.00;;;;;;4911604;29;20426;-59
2021/06/29 09:38:30;;;;;;;12.07;11.37;;;30.90;1.00;;;;;;4922106;29;20680;-65
2021/06/29 09:41:03;;;;;;;13.23;12.43;;;30.80;1.00;;;;;;4912759;29;21026;-60
2021/06/29 09:43:43;;;;;;;14.27;13.20;;;30.70;1.00;;;;;;4923792;29;20454;-59
2021/06/29 09:46:11;;;;;;;12.30;11.47;;;30.60;1.00;;;;;;4911224;29;20481;-59
2021/06/29 09:49:05;;;;;;;11.93;11.13;;;31.00;1.00;;;;;;4918394;29;20453;-59
2021/06/29 09:51:33;;;;;;;12.87;11.57;;;31.60;1.00;;;;;;4920923;29;20499;-60
2021/06/29 09:54:02;;;;;;;13.57;12.47;;;31.60;1.00;;;;;;4913281;29;20422;-60
2021/06/29 09:56:37;;;;;;;13.87;12.77;;;31.50;1.00;;;;;;4922453;29;20496;-59
2021/06/29 09:59:03;;;;;;;13.73;12.50;;;31.70;1.00;;;;;;4916952;29;20540;-60
2021/06/29 10:01:29;;;;;;;13.93;13.03;;;31.60;1.00;;;;;;4916192;29;20501;-59
2021/06/29 10:03:57;;;;;;;12.67;11.80;;;31.80;99.90;;;;;;4903714;29;21161;-59
2021/06/29 10:06:28;;;;;;;12.93;12.03;;;32.60;99.90;;;;;;4932677;29;20407;-59
2021/06/29 10:09:15;;;;;;;12.90;12.20;;;33.00;99.90;;;;;;4933301;29;21105;-59
2021/06/29 10:11:47;;;;;;;12.73;11.93;;;33.00;99.90;;;;;;4915274;29;20437;-60
2021/06/29 10:14:14;;;;;;;12.00;11.30;;;32.90;99.90;;;;;;4917423;29;20449;-60
2021/06/29 10:16:47;;;;;;;13.07;12.20;;;33.20;99.90;;;;;;4933101;29;20882;-58
2021/06/29 10:19:23;;;;;;;13.20;12.33;;;33.30;99.90;;;;;;4925061;29;20844;-59
2021/06/29 10:21:51;;;;;;;13.13;12.00;;;33.50;99.90;;;;;;4918578;29;20487;-59
2021/06/29 10:24:23;;;;;;;12.00;11.20;;;33.00;99.90;;;;;;4937744;29;20478;-59
2021/06/29 10:26:51;;;;;;;13.10;12.20;;;32.70;99.90;;;;;;4926598;29;20995;-60
2021/06/29 10:29:18;;;;;;;12.17;11.27;;;33.00;99.90;;;;;;4915877;29;20442;-63
2021/06/29 10:31:48;;;;;;;11.90;11.20;;;33.50;99.90;;;;;;4914690;29;20941;-59
2021/06/29 10:34:15;;;;;;;12.43;11.63;;;34.20;99.90;;;;;;4924348;29;20454;-60
2021/06/29 10:36:52;;;;;;;12.13;11.43;;;34.60;99.90;;;;;;4916232;29;20486;-60
2021/06/29 10:39:24;;;;;;;11.67;10.97;;;34.70;99.90;;;;;;4913347;29;20593;-58
2021/06/29 10:41:59;;;;;;;12.17;11.47;;;34.50;99.90;;;;;;4920821;29;20517;-59
2021/06/29 10:44:26;;;;;;;12.00;11.20;;;34.30;99.90;;;;;;4914970;29;20504;-59
2021/06/29 10:46:57;;;;;;;11.77;11.07;;;34.00;99.90;;;;;;4925591;29;20445;-59
2021/06/29 10:49:42;;;;;;;12.40;11.50;;;33.50;99.90;;;;;;4932862;29;20414;-59
2021/06/29 10:52:31;;;;;;;12.63;11.77;;;33.00;99.90;;;;;;4915407;29;20529;-59
2021/06/29 10:55:02;;;;;;;12.40;11.70;;;32.70;99.90;;;;;;4909950;29;20470;-55
2021/06/29 10:57:40;;;;;;;12.60;11.90;;;32.40;99.90;;;;;;4930294;29;20461;-59
2021/06/29 11:00:21;;;;;;;11.93;11.27;;;32.40;99.90;;;;;;4926848;29;20854;-59
2021/06/29 11:03:10;;;;;;;11.67;10.97;;;32.30;99.90;;;;;;4916422;29;20441;-59
2021/06/29 11:05:45;;;;;;;11.63;11.00;;;32.00;99.90;;;;;;4913843;29;20472;-59
2021/06/29 11:08:19;;;;;;;12.23;11.53;;;31.80;99.90;;;;;;4913562;29;20450;-59
2021/06/29 11:10:48;;;;;;;12.80;12.00;;;31.70;99.90;;;;;;4925877;29;20444;-62
2021/06/29 11:13:15;;;;;;;12.57;11.87;;;31.80;99.90;;;;;;4917924;29;20445;-58
2021/06/29 11:15:51;;;;;;;11.70;11.00;;;32.20;99.90;;;;;;4921827;29;20488;-59
2021/06/29 11:18:44;;;;;;;12.30;11.60;;;32.30;99.90;;;;;;4917555;29;20446;-67
2021/06/29 11:21:19;;;;;;;13.00;12.10;;;32.30;99.90;;;;;;4916826;29;20941;-59
2021/06/29 11:23:44;;;;;;;12.80;12.00;;;32.40;99.90;;;;;;4919576;29;20457;-58
2021/06/29 11:26:13;;;;;;;13.03;12.33;;;32.30;99.90;;;;;;4924507;29;20505;-58
2021/06/29 11:28:59;;;;;;;10.70;10.10;;;32.20;99.90;;;;;;4921000;29;21119;-59
2021/06/29 11:31:30;;;;;;;12.67;11.97;;;32.30;99.90;;;;;;4924404;29;20429;-58
2021/06/29 11:33:58;;;;;;;13.37;12.67;;;32.10;99.90;;;;;;4922908;29;20419;-59
2021/06/29 11:36:23;;;;;;;12.90;11.93;;;32.10;99.90;;;;;;4898017;29;20454;-61
2021/06/29 11:38:54;;;;;;;11.67;10.97;;;32.00;99.90;;;;;;4921318;29;20449;-60
2021/06/29 11:41:34;;;;;;;13.07;12.17;;;32.00;99.90;;;;;;4915780;29;20190;-60
2021/06/29 11:44:06;;;;;;;12.60;11.80;;;32.20;99.90;;;;;;4923108;29;20470;-56
2021/06/29 11:46:50;;;;;;;12.90;12.10;;;32.20;99.90;;;;;;4925064;29;20926;-58
2021/06/29 11:49:25;;;;;;;12.50;11.70;;;32.10;99.90;;;;;;4918368;29;21161;-60
2021/06/29 11:51:51;;;;;;;12.27;11.57;;;32.10;99.90;;;;;;4913887;29;20425;-60
2021/06/29 11:54:29;;;;;;;13.20;12.50;;;32.40;99.90;;;;;;4920795;29;20965;-62
2021/06/29 11:56:56;;;;;;;12.03;11.43;;;32.40;99.90;;;;;;4919249;29;20438;-59
2021/06/29 11:59:29;;;;;;;11.80;11.20;;;32.40;99.90;;;;;;4918486;29;21187;-58
2021/06/29 12:02:07;;;;;;;11.23;10.63;;;32.20;99.90;;;;;;4920123;29;20997;-59
2021/06/29 12:04:33;;;;;;;11.87;11.07;;;31.80;99.90;;;;;;4915844;29;20466;-60
2021/06/29 12:07:08;;;;;;;12.30;11.60;;;31.50;99.90;;;;;;4913257;29;20423;-60
2021/06/29 12:09:36;;;;;;;10.83;10.23;;;31.40;99.90;;;;;;4918891;29;20442;-60
2021/06/29 12:12:18;;;;;;;12.20;11.40;;;31.20;99.90;;;;;;4913637;29;20430;-60
2021/06/29 12:14:43;;;;;;;10.80;10.20;;;30.80;99.90;;;;;;4911898;29;20608;-60
2021/06/29 12:17:09;;;;;;;11.13;10.43;;;30.70;99.90;;;;;;4897381;29;20537;-58
2021/06/29 12:19:35;;;;;;;11.00;10.33;;;30.60;99.90;;;;;;4918397;29;20233;-60
2021/06/29 12:22:00;;;;;;;11.10;10.50;;;30.40;1.00;;;;;;4934224;29;20236;-59
2021/06/29 12:24:26;;;;;;;10.70;10.10;;;30.30;1.00;;;;;;4911855;29;21056;-59
2021/06/29 12:26:52;;;;;;;10.83;9.93;;;30.10;1.00;;;;;;4912518;29;20214;-58
2021/06/29 12:29:28;;;;;;;10.77;10.17;;;29.70;99.90;;;;;;4921980;29;20241;-59
2021/06/29 12:31:54;;;;;;;10.90;10.20;;;29.60;99.90;;;;;;4925633;29;20186;-59
2021/06/29 12:34:23;;;;;;;11.90;11.00;;;29.50;1.00;;;;;;4921628;29;20541;-58
2021/06/29 12:36:49;;;;;;;12.13;11.33;;;29.30;1.00;;;;;;4923860;29;20197;-60
2021/06/29 12:39:15;;;;;;;11.60;10.90;;;29.10;99.90;;;;;;4920826;29;20438;-60